Alsen, South Dakota
Current Conditions -  °F | °C
As of 9:55 PM on Saturday 24 Jan 2015 (Local Time) from KYKN Reporting Station
Overcast Overcast  
Wind Chill: 29°   Ceiling: 2000
Heat Index: 39°   Visibility: 10mi
Dew Point: 36°   Wind: 23mph
Humidity: 87%   Direction: 300°WNW
Pressure: 29.62"   Gusts: 29mph
Location:  43.1048°N, 96.7944°W
Report Text: KYKN 250355Z AUTO 30020G25KT 10SM FEW014 BKN020 OVC036 04/02 A2962 RMK AO1
Loading
Personal Weather Stations






























Interactive Weather Map New forecast layout! Learn more

10-Day Weather Forecast

Advertisements
Track Severe Weather on mobile